createdAt,value
2022-08-27T00:01:33.737Z,23.20
2022-08-27T00:04:55.967Z,23.30
2022-08-27T00:08:18.163Z,23.30
2022-08-27T00:11:40.469Z,23.20
2022-08-27T00:15:06.525Z,23.20
2022-08-27T00:18:28.772Z,23.20
2022-08-27T00:21:51.095Z,23.20
2022-08-27T00:25:13.735Z,23.20
2022-08-27T00:28:36.384Z,23.20
2022-08-27T00:31:59.819Z,23.20
2022-08-27T00:35:22.102Z,23.20
2022-08-27T00:38:44.456Z,23.20
2022-08-27T00:42:07.310Z,23.20
2022-08-27T00:45:32.904Z,23.10
2022-08-27T00:49:00.488Z,23.10
2022-08-27T00:52:41.953Z,23.10
2022-08-27T00:56:07.898Z,23.10
2022-08-27T00:59:32.730Z,23.20
2022-08-27T01:02:55.125Z,23.10
2022-08-27T01:06:19.083Z,23.10
2022-08-27T01:09:43.100Z,23.10
2022-08-27T01:13:11.741Z,23.10
2022-08-27T01:16:39.527Z,23.10
2022-08-27T01:20:08.602Z,23.10
2022-08-27T01:23:37.840Z,23.20
2022-08-27T01:27:01.781Z,23.10
2022-08-27T01:30:24.195Z,23.10
2022-08-27T01:34:05.199Z,23.10
2022-08-27T01:37:28.653Z,23.10
2022-08-27T01:40:50.921Z,23.10
2022-08-27T01:44:17.682Z,23.10
2022-08-27T01:47:41.827Z,23.00
2022-08-27T01:51:04.422Z,23.00
2022-08-27T01:54:26.570Z,22.90
2022-08-27T01:57:50.418Z,22.90
2022-08-27T02:01:16.812Z,22.90
2022-08-27T02:04:39.386Z,23.00
2022-08-27T02:08:02.155Z,23.00
2022-08-27T02:11:25.812Z,23.00
2022-08-27T02:14:48.048Z,23.00
2022-08-27T02:18:11.941Z,23.00
2022-08-27T02:21:35.305Z,23.00
2022-08-27T02:24:57.647Z,23.00
2022-08-27T02:28:20.145Z,23.00
2022-08-27T02:31:42.939Z,22.90
2022-08-27T02:35:06.055Z,23.00
2022-08-27T02:38:28.362Z,23.00
2022-08-27T02:41:50.553Z,22.90
2022-08-27T02:45:13.923Z,22.90
2022-08-27T02:48:37.626Z,22.90
2022-08-27T02:51:59.844Z,22.90
2022-08-27T02:55:22.661Z,22.90
2022-08-27T02:58:44.935Z,22.80
2022-08-27T03:02:08.950Z,22.80
2022-08-27T03:05:31.577Z,22.90
2022-08-27T03:08:53.841Z,22.80
2022-08-27T03:12:16.047Z,22.80
2022-08-27T03:15:38.255Z,22.80
2022-08-27T03:19:00.519Z,22.80
2022-08-27T03:22:22.781Z,22.90
2022-08-27T03:25:51.345Z,22.80
2022-08-27T03:29:13.608Z,22.90
2022-08-27T03:32:36.434Z,22.80
2022-08-27T03:35:59.178Z,22.80
2022-08-27T03:39:21.831Z,22.80
2022-08-27T03:42:44.069Z,22.80
2022-08-27T03:46:08.149Z,22.80
2022-08-27T03:49:30.337Z,22.70
2022-08-27T03:52:55.338Z,22.70
2022-08-27T03:56:17.516Z,22.70
2022-08-27T03:59:39.681Z,22.70
2022-08-27T04:03:02.126Z,22.60
2022-08-27T04:06:24.389Z,22.60
2022-08-27T04:09:46.542Z,22.70
2022-08-27T04:13:08.781Z,22.70
2022-08-27T04:16:32.585Z,22.70
2022-08-27T04:19:55.012Z,22.70
2022-08-27T04:23:17.319Z,22.60
2022-08-27T04:26:40.986Z,22.60
2022-08-27T04:30:05.698Z,22.80
2022-08-27T04:33:27.960Z,22.90
2022-08-27T04:36:50.449Z,22.90
2022-08-27T04:40:12.809Z,22.90
2022-08-27T04:43:35.208Z,22.90
2022-08-27T04:47:00.394Z,22.80
2022-08-27T04:50:22.601Z,22.80
2022-08-27T04:53:52.751Z,22.80
2022-08-27T04:57:15.495Z,22.80
2022-08-27T05:00:42.906Z,22.80
2022-08-27T05:04:06.030Z,22.80
2022-08-27T05:07:28.285Z,22.70
2022-08-27T05:10:51.507Z,22.80
2022-08-27T05:14:16.253Z,22.80
2022-08-27T05:17:38.512Z,22.80
2022-08-27T05:21:01.253Z,22.80
2022-08-27T05:24:23.983Z,22.80
2022-08-27T05:27:46.258Z,22.80
2022-08-27T05:31:11.275Z,22.80
2022-08-27T05:34:33.561Z,22.80
2022-08-27T05:37:56.027Z,22.80
2022-08-27T05:41:21.158Z,22.80
2022-08-27T05:44:43.289Z,22.80
2022-08-27T05:48:05.590Z,22.80
2022-08-27T05:51:34.086Z,22.80
2022-08-27T05:54:56.315Z,22.80
2022-08-27T05:58:37.067Z,22.70
2022-08-27T06:01:59.340Z,22.70
2022-08-27T06:05:21.676Z,22.70
2022-08-27T06:08:44.025Z,22.70
2022-08-27T06:12:07.028Z,22.70
2022-08-27T06:15:29.406Z,22.70
2022-08-27T06:18:52.074Z,22.80
2022-08-27T06:22:15.012Z,22.80
2022-08-27T06:25:40.602Z,22.80
2022-08-27T06:29:05.416Z,22.80
2022-08-27T06:32:27.723Z,22.90
2022-08-27T06:35:49.975Z,22.80
2022-08-27T06:39:15.392Z,22.90
2022-08-27T06:42:39.249Z,22.90
2022-08-27T06:46:04.095Z,22.10
2022-08-27T06:49:28.757Z,21.70
2022-08-27T06:52:50.974Z,21.70
2022-08-27T06:56:15.317Z,22.10
2022-08-27T06:59:38.719Z,22.30
2022-08-27T07:03:05.186Z,22.30
2022-08-27T07:06:29.929Z,22.40
2022-08-27T07:09:52.197Z,22.40
2022-08-27T07:13:14.416Z,22.40
2022-08-27T07:16:37.129Z,22.40
2022-08-27T07:20:03.523Z,22.50
2022-08-27T07:23:26.054Z,22.60
2022-08-27T07:26:48.836Z,22.70
2022-08-27T07:30:15.312Z,22.80
2022-08-27T07:33:39.175Z,22.80
2022-08-27T07:37:01.938Z,22.80
2022-08-27T07:40:24.422Z,22.80
2022-08-27T07:44:05.996Z,22.70
2022-08-27T07:47:28.398Z,22.70
2022-08-27T07:50:51.377Z,22.80
2022-08-27T07:54:13.903Z,22.70
2022-08-27T07:57:36.176Z,22.70
2022-08-27T08:00:58.794Z,22.80
2022-08-27T08:04:22.724Z,22.80
2022-08-27T08:07:45.141Z,22.80
2022-08-27T08:11:12.628Z,22.80
2022-08-27T08:14:34.899Z,22.70
2022-08-27T08:17:57.226Z,22.70
2022-08-27T08:21:19.590Z,22.80
2022-08-27T08:24:41.821Z,22.80
2022-08-27T08:28:04.517Z,22.90
2022-08-27T08:31:27.463Z,22.80
2022-08-27T08:34:50.933Z,22.90
2022-08-27T08:38:13.229Z,22.90
2022-08-27T08:41:48.709Z,22.90
2022-08-27T08:45:15.932Z,22.90
2022-08-27T08:48:43.517Z,23.00
2022-08-27T08:52:26.436Z,23.10
2022-08-27T08:55:58.676Z,23.10
2022-08-27T08:59:31.397Z,23.20
2022-08-27T09:02:55.195Z,23.30
2022-08-27T09:06:45.373Z,23.30
2022-08-27T09:10:33.606Z,23.20
2022-08-27T09:14:02.959Z,23.20
2022-08-27T09:17:25.585Z,23.20
2022-08-27T09:20:51.557Z,23.30
2022-08-27T09:24:15.050Z,23.40
2022-08-27T09:27:42.289Z,23.30
2022-08-27T09:31:08.361Z,23.30
2022-08-27T09:34:39.416Z,23.40
2022-08-27T09:38:02.411Z,23.50
2022-08-27T09:41:29.540Z,23.60
2022-08-27T09:44:55.072Z,23.60
2022-08-27T09:48:24.830Z,23.60
2022-08-27T09:51:48.246Z,23.70
2022-08-27T09:55:11.803Z,23.90
2022-08-27T09:58:45.429Z,23.60
2022-08-27T10:02:22.767Z,23.60
2022-08-27T10:05:54.212Z,23.80
2022-08-27T10:09:26.553Z,23.80
2022-08-27T10:13:10.297Z,23.80
2022-08-27T10:16:59.998Z,23.70
2022-08-27T10:20:36.590Z,23.90
2022-08-27T10:24:26.269Z,23.90
2022-08-27T10:27:54.238Z,24.00
2022-08-27T10:31:31.369Z,24.00
2022-08-27T10:35:07.828Z,24.10
2022-08-27T10:38:51.906Z,23.80
2022-08-27T10:42:29.825Z,23.90
2022-08-27T10:46:06.720Z,24.10
2022-08-27T10:49:47.222Z,24.10
2022-08-27T10:53:17.321Z,24.20
2022-08-27T10:56:46.563Z,24.30
2022-08-27T11:00:13.369Z,24.40
2022-08-27T11:04:02.568Z,24.40
2022-08-27T11:07:29.547Z,24.40
2022-08-27T11:11:11.789Z,24.40
2022-08-27T11:15:06.484Z,24.50
2022-08-27T11:18:52.246Z,24.60
2022-08-27T11:22:26.714Z,24.60
2022-08-27T11:26:07.526Z,24.60
2022-08-27T11:30:02.754Z,24.60
2022-08-27T11:33:46.410Z,24.60
2022-08-27T11:37:37.928Z,24.60
2022-08-27T11:41:20.400Z,24.60
2022-08-27T11:44:46.637Z,24.60
2022-08-27T11:48:38.018Z,24.60
2022-08-27T11:52:05.137Z,24.60
2022-08-27T11:55:29.941Z,24.60
2022-08-27T11:58:52.713Z,24.60
2022-08-27T12:02:25.264Z,24.70
2022-08-27T12:05:53.300Z,24.60
2022-08-27T12:09:23.658Z,24.60
2022-08-27T12:12:48.927Z,24.60
2022-08-27T12:16:16.474Z,24.70
2022-08-27T12:19:41.460Z,24.60
2022-08-27T12:23:40.157Z,24.60
2022-08-27T12:27:22.085Z,24.60
2022-08-27T12:30:52.036Z,24.60
2022-08-27T12:34:26.169Z,24.50
2022-08-27T12:37:57.741Z,24.50
2022-08-27T12:41:27.440Z,24.60
2022-08-27T12:44:56.120Z,24.60
2022-08-27T12:48:31.043Z,24.60
2022-08-27T12:51:55.402Z,24.60
2022-08-27T12:55:20.807Z,24.60
2022-08-27T12:59:15.939Z,24.60
2022-08-27T13:03:07.072Z,24.60
2022-08-27T13:06:33.265Z,24.60
2022-08-27T13:09:57.403Z,24.60
2022-08-27T13:13:25.147Z,24.60
2022-08-27T13:16:59.616Z,24.60
2022-08-27T13:20:24.970Z,24.60
2022-08-27T13:23:54.208Z,24.60
2022-08-27T13:27:16.483Z,24.60
2022-08-27T13:30:48.477Z,24.60
2022-08-27T13:34:15.485Z,24.60
2022-08-27T13:37:53.521Z,24.60
2022-08-27T13:41:28.101Z,24.60
2022-08-27T13:44:52.775Z,24.50
2022-08-27T13:48:18.549Z,24.60
2022-08-27T13:51:42.130Z,24.60
2022-08-27T13:55:09.331Z,24.60
2022-08-27T13:58:33.770Z,24.60
2022-08-27T14:02:16.096Z,24.60
2022-08-27T14:05:48.029Z,24.50
2022-08-27T14:09:25.338Z,24.50
2022-08-27T14:12:58.000Z,24.60
2022-08-27T14:16:31.132Z,24.60
2022-08-27T14:19:53.643Z,24.60
2022-08-27T14:23:17.453Z,24.60
2022-08-27T14:26:39.777Z,24.60
2022-08-27T14:30:02.253Z,24.60
2022-08-27T14:33:24.612Z,24.60
2022-08-27T14:36:46.932Z,24.60
2022-08-27T14:40:11.564Z,24.60
2022-08-27T14:43:34.656Z,24.60
2022-08-27T14:46:58.176Z,24.60
2022-08-27T14:50:21.670Z,24.60
2022-08-27T14:53:44.110Z,24.60
2022-08-27T14:57:08.370Z,24.60
2022-08-27T15:00:30.909Z,24.60
2022-08-27T15:03:54.771Z,24.60
2022-08-27T15:07:19.688Z,24.60
2022-08-27T15:10:45.058Z,24.60
2022-08-27T15:14:15.025Z,24.60
2022-08-27T15:17:37.383Z,24.60
2022-08-27T15:21:00.194Z,24.60
2022-08-27T15:24:25.632Z,24.60
2022-08-27T15:27:48.339Z,24.70
2022-08-27T15:31:10.699Z,24.70
2022-08-27T15:34:33.030Z,24.80
2022-08-27T15:37:57.190Z,24.80
2022-08-27T15:41:19.613Z,24.70
2022-08-27T15:44:49.265Z,24.80
2022-08-27T15:48:12.258Z,24.80
2022-08-27T15:51:35.822Z,24.80
2022-08-27T15:54:58.127Z,24.80
2022-08-27T15:58:20.298Z,24.80
2022-08-27T16:01:42.850Z,24.80
2022-08-27T16:05:06.125Z,24.80
2022-08-27T16:08:28.820Z,24.80
2022-08-27T16:11:54.445Z,24.70
2022-08-27T16:15:17.458Z,24.80
2022-08-27T16:18:42.091Z,24.80
2022-08-27T16:22:04.435Z,24.80
2022-08-27T16:25:26.619Z,24.80
2022-08-27T16:28:49.294Z,24.80
2022-08-27T16:32:17.129Z,24.80
2022-08-27T16:35:42.513Z,24.90
2022-08-27T16:39:04.745Z,24.90
2022-08-27T16:42:27.382Z,24.90
2022-08-27T16:45:54.839Z,25.00
2022-08-27T16:49:35.962Z,25.00
2022-08-27T16:52:58.245Z,25.00
2022-08-27T16:56:21.217Z,25.00
2022-08-27T16:59:48.565Z,25.00
2022-08-27T17:03:11.009Z,25.00
2022-08-27T17:06:33.241Z,25.00
2022-08-27T17:09:57.522Z,25.00
2022-08-27T17:13:28.365Z,25.00
2022-08-27T17:16:52.013Z,25.00
2022-08-27T17:20:15.448Z,25.00
2022-08-27T17:23:44.950Z,25.00
2022-08-27T17:27:07.232Z,25.00
2022-08-27T17:30:29.777Z,25.00
2022-08-27T17:33:53.089Z,25.00
2022-08-27T17:37:15.422Z,25.00
2022-08-27T17:40:40.966Z,25.00
2022-08-27T17:44:07.561Z,25.00
2022-08-27T17:47:29.926Z,25.10
2022-08-27T17:50:53.427Z,25.10
2022-08-27T17:54:42.008Z,25.10
2022-08-27T17:58:04.977Z,25.20
2022-08-27T18:01:31.222Z,25.20
2022-08-27T18:04:53.593Z,25.20
2022-08-27T18:08:16.117Z,25.10
2022-08-27T18:11:39.762Z,25.00
2022-08-27T18:15:24.963Z,25.10
2022-08-27T18:18:47.725Z,25.00
2022-08-27T18:22:10.006Z,25.10
2022-08-27T18:25:36.355Z,25.00
2022-08-27T18:28:59.015Z,25.10
2022-08-27T18:32:21.229Z,25.00
2022-08-27T18:35:44.113Z,25.00
2022-08-27T18:39:06.935Z,25.00
2022-08-27T18:42:29.319Z,24.90
2022-08-27T18:45:51.577Z,24.90
2022-08-27T18:49:13.974Z,24.90
2022-08-27T18:52:37.826Z,24.80
2022-08-27T18:56:00.869Z,24.80
2022-08-27T18:59:27.261Z,24.80
2022-08-27T19:02:52.726Z,24.70
2022-08-27T19:06:17.848Z,24.70
2022-08-27T19:09:40.141Z,24.70
2022-08-27T19:13:02.327Z,24.70
2022-08-27T19:16:38.248Z,24.60
2022-08-27T19:20:01.661Z,24.60
2022-08-27T19:23:24.141Z,24.60
2022-08-27T19:26:46.897Z,24.60
2022-08-27T19:30:10.005Z,24.80
2022-08-27T19:33:32.322Z,24.70
2022-08-27T19:36:55.318Z,24.80
2022-08-27T19:40:17.868Z,24.80
2022-08-27T19:43:44.087Z,24.80
2022-08-27T19:47:10.227Z,24.80
2022-08-27T19:50:32.454Z,24.90
2022-08-27T19:53:54.661Z,24.80
2022-08-27T19:57:17.209Z,24.80
2022-08-27T20:00:39.740Z,24.90
2022-08-27T20:04:02.166Z,24.90
2022-08-27T20:07:24.421Z,24.80
2022-08-27T20:10:46.905Z,24.90
2022-08-27T20:14:10.277Z,24.80
2022-08-27T20:17:33.305Z,24.80
2022-08-27T20:20:55.993Z,24.80
2022-08-27T20:24:18.342Z,24.80
2022-08-27T20:27:42.082Z,24.80
2022-08-27T20:31:04.473Z,24.80
2022-08-27T20:34:29.425Z,24.80
2022-08-27T20:37:51.953Z,24.80
2022-08-27T20:41:14.387Z,24.80
2022-08-27T20:44:37.076Z,24.80
2022-08-27T20:47:59.474Z,24.80
2022-08-27T20:51:22.364Z,24.80
2022-08-27T20:54:46.911Z,24.90
2022-08-27T20:58:27.806Z,25.00
2022-08-27T21:01:50.037Z,24.80
2022-08-27T21:05:15.174Z,24.80
2022-08-27T21:08:38.852Z,24.80
2022-08-27T21:12:01.468Z,24.90
2022-08-27T21:15:24.112Z,24.80
2022-08-27T21:18:46.418Z,24.70
2022-08-27T21:22:08.739Z,24.70
2022-08-27T21:25:31.022Z,24.60
2022-08-27T21:28:55.461Z,24.60
2022-08-27T21:32:18.781Z,24.50
2022-08-27T21:35:41.035Z,24.50
2022-08-27T21:39:03.543Z,24.40
2022-08-27T21:42:25.766Z,24.40
2022-08-27T21:45:48.005Z,24.30
2022-08-27T21:49:11.000Z,24.30
2022-08-27T21:52:33.202Z,24.20
2022-08-27T21:55:55.378Z,24.30
2022-08-27T21:59:17.634Z,24.30
2022-08-27T22:02:40.798Z,24.30
2022-08-27T22:06:06.677Z,24.30
2022-08-27T22:09:29.077Z,24.30
2022-08-27T22:12:51.273Z,24.20
2022-08-27T22:16:17.963Z,24.20
2022-08-27T22:19:40.348Z,24.20
2022-08-27T22:23:05.321Z,24.20
2022-08-27T22:26:27.512Z,24.20
2022-08-27T22:29:49.731Z,24.20
2022-08-27T22:33:13.069Z,24.20
2022-08-27T22:36:36.059Z,24.20
2022-08-27T22:39:58.328Z,24.10
2022-08-27T22:43:20.961Z,24.10
2022-08-27T22:46:43.249Z,24.10
2022-08-27T22:50:07.216Z,24.10
2022-08-27T22:53:29.445Z,24.10
2022-08-27T22:56:51.635Z,24.10
2022-08-27T23:00:29.051Z,24.10
2022-08-27T23:03:51.503Z,24.10
2022-08-27T23:07:13.805Z,24.10
2022-08-27T23:10:37.045Z,24.10
2022-08-27T23:13:59.951Z,24.00
2022-08-27T23:17:23.868Z,24.00
2022-08-27T23:20:47.338Z,24.00
2022-08-27T23:24:09.756Z,24.00
2022-08-27T23:27:31.974Z,24.00
2022-08-27T23:30:55.021Z,24.00
2022-08-27T23:34:18.610Z,24.00
2022-08-27T23:37:41.723Z,24.00
2022-08-27T23:41:04.205Z,24.00
2022-08-27T23:44:29.134Z,23.90
2022-08-27T23:47:51.534Z,24.00
2022-08-27T23:51:13.901Z,23.90
2022-08-27T23:54:36.400Z,23.90
2022-08-27T23:57:58.834Z,23.90
